createdAt,value
2023-03-16T15:41:49.813Z,95088
2023-03-16T15:45:15.045Z,95079
2023-03-16T15:48:40.178Z,95081
2023-03-16T15:52:05.329Z,95078
2023-03-16T15:55:30.476Z,95078
2023-03-16T15:58:55.660Z,95078
2023-03-16T16:02:20.831Z,95076
2023-03-16T16:05:45.958Z,95071
2023-03-16T16:09:11.183Z,95082
2023-03-16T16:12:36.438Z,95081
2023-03-16T16:16:01.739Z,95069
2023-03-16T16:19:26.919Z,95070
2023-03-16T16:22:52.114Z,95066
2023-03-16T16:26:17.299Z,95066
2023-03-16T16:29:42.625Z,95067
2023-03-16T16:33:08.292Z,95067
2023-03-16T16:36:33.400Z,95061
2023-03-16T16:39:58.621Z,95055
2023-03-16T16:43:23.788Z,95055
2023-03-16T16:46:48.977Z,95057
2023-03-16T16:50:14.224Z,95055
2023-03-16T16:53:39.376Z,95049
2023-03-16T16:57:04.588Z,95040
2023-03-16T17:00:29.802Z,95035
2023-03-16T17:03:55.006Z,95029
2023-03-16T17:07:20.274Z,95034
2023-03-16T17:10:45.527Z,95032
2023-03-16T17:14:10.695Z,95038
2023-03-16T17:17:36.339Z,95047
2023-03-16T17:21:01.609Z,95048
2023-03-16T17:24:26.750Z,95046
2023-03-16T17:27:51.972Z,95041
2023-03-16T17:31:17.254Z,95036
2023-03-16T17:34:42.419Z,95039
2023-03-16T17:38:07.663Z,95045
2023-03-16T17:41:33.264Z,95043
2023-03-16T17:44:58.054Z,95043
2023-03-16T17:48:23.219Z,95044
2023-03-16T17:51:48.422Z,95055
2023-03-16T17:55:15.708Z,95038
2023-03-16T17:58:40.984Z,95024
2023-03-16T18:02:06.208Z,95028
2023-03-16T18:05:33.115Z,95027
2023-03-16T18:08:58.338Z,95030
2023-03-16T18:12:23.512Z,95024
2023-03-16T18:15:48.890Z,95014
2023-03-16T18:19:13.873Z,95018
2023-03-16T18:22:39.032Z,95013
2023-03-16T18:26:04.249Z,95022
2023-03-16T18:29:29.386Z,95025
2023-03-16T18:32:54.667Z,95023
2023-03-16T18:36:19.787Z,95022
2023-03-16T18:39:44.914Z,95015
2023-03-16T18:43:10.057Z,95020
2023-03-16T18:46:35.264Z,95015
2023-03-16T18:50:00.437Z,95022
2023-03-16T18:53:25.561Z,95023
2023-03-16T18:56:50.723Z,95005
2023-03-16T19:00:15.851Z,95010
2023-03-16T19:03:41.012Z,95012
2023-03-16T19:07:06.247Z,95008
2023-03-16T19:10:31.428Z,95008
2023-03-16T19:13:56.621Z,95001
2023-03-16T19:17:21.764Z,94997
2023-03-16T19:20:49.012Z,95002
2023-03-16T19:24:12.079Z,95001
2023-03-16T19:27:37.188Z,94999
2023-03-16T19:31:02.307Z,94996
2023-03-16T19:34:27.503Z,94999
2023-03-16T19:37:52.729Z,94997
2023-03-16T19:41:17.980Z,94997
2023-03-16T19:44:43.189Z,95000
2023-03-16T19:48:08.376Z,95007
2023-03-16T19:51:33.596Z,95009
2023-03-16T19:54:58.848Z,95007
2023-03-16T19:58:24.045Z,95014
2023-03-16T20:01:49.206Z,95005
2023-03-16T20:05:14.402Z,95003
2023-03-16T20:08:39.549Z,95008
2023-03-16T20:12:04.711Z,95005
2023-03-16T20:15:30.114Z,95002
2023-03-16T20:18:55.034Z,95000
2023-03-16T20:22:20.222Z,95001
2023-03-16T20:25:45.424Z,95003
2023-03-16T20:29:10.592Z,95007
2023-03-16T20:32:35.866Z,95011
2023-03-16T20:36:01.076Z,95010
2023-03-16T20:39:26.203Z,95016
2023-03-16T20:42:51.383Z,95001
2023-03-16T20:46:16.591Z,95001
2023-03-16T20:49:41.819Z,94994
2023-03-16T20:53:07.004Z,94999
2023-03-16T20:56:32.146Z,94994
2023-03-16T20:59:57.296Z,94999
2023-03-16T21:03:22.487Z,94999
2023-03-16T21:06:47.631Z,94993
2023-03-16T21:10:12.814Z,94994
2023-03-16T21:13:37.988Z,94996
2023-03-16T21:17:03.163Z,94994
2023-03-16T21:20:28.391Z,94991
2023-03-16T21:23:53.624Z,94988
2023-03-16T21:27:18.818Z,94984
2023-03-16T21:30:44.020Z,94984
2023-03-16T21:34:09.191Z,94986
2023-03-16T21:37:34.385Z,94986
2023-03-16T21:40:59.620Z,94991
2023-03-16T21:44:24.748Z,94984
2023-03-16T21:47:49.937Z,94981
2023-03-16T21:51:15.126Z,94968
2023-03-16T21:54:40.248Z,94964
2023-03-16T21:58:05.451Z,94969
2023-03-16T22:01:30.681Z,94970
2023-03-16T22:04:55.760Z,94961
2023-03-16T22:08:20.955Z,94956
2023-03-16T22:11:46.166Z,94955
2023-03-16T22:15:11.363Z,94951
2023-03-16T22:18:36.484Z,94952
2023-03-16T22:22:01.687Z,94953
2023-03-16T22:25:27.268Z,94957
2023-03-16T22:28:52.031Z,94948
2023-03-16T22:32:17.256Z,94943
2023-03-16T22:35:42.376Z,94946
2023-03-16T22:39:07.573Z,94953
2023-03-16T22:42:32.698Z,94957
2023-03-16T22:45:57.907Z,94956
2023-03-16T22:49:23.062Z,94955
2023-03-16T22:52:48.179Z,94954
2023-03-16T22:56:13.364Z,94949
2023-03-16T22:59:38.512Z,94930
2023-03-16T23:03:03.614Z,94921
2023-03-16T23:06:28.801Z,94917
2023-03-16T23:09:53.951Z,94916
2023-03-16T23:13:19.122Z,94910
2023-03-16T23:16:44.403Z,94913
2023-03-16T23:20:09.514Z,94915
2023-03-16T23:23:34.706Z,94904
2023-03-16T23:26:59.856Z,94898
2023-03-16T23:30:25.023Z,94905
2023-03-16T23:33:50.188Z,94903
2023-03-16T23:37:15.396Z,94903
2023-03-16T23:40:41.146Z,94911
2023-03-16T23:44:06.275Z,94910
2023-03-16T23:47:31.457Z,94903
2023-03-16T23:50:56.686Z,94893
2023-03-16T23:54:21.928Z,94892
2023-03-16T23:57:47.108Z,94888
